createdAt,value
2024-03-03T00:00:47.093Z,31.63
2024-03-03T00:03:13.772Z,31.85
2024-03-03T00:05:40.330Z,30.63
2024-03-03T00:08:07.381Z,30.23
2024-03-03T00:10:33.878Z,27.65
2024-03-03T00:13:02.073Z,30.75
2024-03-03T00:15:28.660Z,30.38
2024-03-03T00:17:55.246Z,29.27
2024-03-03T00:20:21.806Z,29.87
2024-03-03T00:22:48.341Z,30.67
2024-03-03T00:25:14.973Z,30.27
2024-03-03T00:27:41.598Z,29.97
2024-03-03T00:30:10.773Z,32.17
2024-03-03T00:32:37.250Z,29.67
2024-03-03T00:35:05.330Z,30.02
2024-03-03T00:37:31.900Z,32.22
2024-03-03T00:39:58.426Z,27.65
2024-03-03T00:42:24.950Z,32.03
2024-03-03T00:44:51.617Z,31.17
2024-03-03T00:47:19.616Z,31.55
2024-03-03T00:49:47.544Z,31.48
2024-03-03T00:52:15.377Z,31.95
2024-03-03T00:54:41.942Z,31.13
2024-03-03T00:57:08.527Z,31.30
2024-03-03T00:59:35.066Z,31.90
2024-03-03T01:02:02.107Z,31.75
2024-03-03T01:04:30.227Z,33.42
2024-03-03T01:06:56.735Z,34.63
2024-03-03T01:09:23.608Z,33.75
2024-03-03T01:11:50.169Z,33.22
2024-03-03T01:14:16.784Z,34.33
2024-03-03T01:16:43.279Z,35.80
2024-03-03T01:19:09.841Z,34.72
2024-03-03T01:21:40.675Z,34.37
2024-03-03T01:24:07.549Z,33.05
2024-03-03T01:26:34.110Z,34.85
2024-03-03T01:29:00.610Z,33.20
2024-03-03T01:31:27.102Z,34.72
2024-03-03T01:33:53.708Z,32.67
2024-03-03T01:36:20.196Z,34.93
2024-03-03T01:38:48.099Z,35.67
2024-03-03T01:41:14.672Z,35.67
2024-03-03T01:43:41.179Z,34.70
2024-03-03T01:46:10.036Z,34.05
2024-03-03T01:48:36.702Z,37.45
2024-03-03T01:51:05.151Z,33.13
2024-03-03T01:53:32.391Z,33.65
2024-03-03T01:56:00.963Z,33.88
2024-03-03T01:58:29.030Z,33.78
2024-03-03T02:00:58.577Z,35.60
2024-03-03T02:03:25.289Z,35.67
2024-03-03T02:05:51.910Z,34.50
2024-03-03T02:08:18.690Z,37.60
2024-03-03T02:10:45.478Z,37.33
2024-03-03T02:13:13.513Z,36.78
2024-03-03T02:15:40.097Z,36.92
2024-03-03T02:18:06.703Z,37.47
2024-03-03T02:20:33.235Z,37.30
2024-03-03T02:23:01.069Z,39.03
2024-03-03T02:25:27.760Z,35.55
2024-03-03T02:27:54.441Z,35.85
2024-03-03T02:30:21.058Z,34.53
2024-03-03T02:32:47.585Z,35.93
2024-03-03T02:35:14.091Z,37.30
2024-03-03T02:37:40.625Z,36.78
2024-03-03T02:40:09.637Z,38.40
2024-03-03T02:42:37.146Z,34.55
2024-03-03T02:45:04.700Z,37.05
2024-03-03T02:47:31.394Z,35.08
2024-03-03T02:49:57.971Z,38.00
2024-03-03T02:52:24.526Z,34.20
2024-03-03T02:54:51.012Z,36.10
2024-03-03T02:57:18.879Z,35.05
2024-03-03T02:59:45.564Z,37.22
2024-03-03T03:02:12.079Z,36.07
2024-03-03T03:04:38.567Z,33.63
2024-03-03T03:07:05.126Z,22.90
2024-03-03T03:09:31.917Z,33.70
2024-03-03T03:11:58.554Z,35.72
2024-03-03T03:14:26.453Z,33.57
2024-03-03T03:16:53.067Z,33.38
2024-03-03T03:19:19.653Z,35.07
2024-03-03T03:21:46.162Z,34.40
2024-03-03T03:24:12.731Z,35.23
2024-03-03T03:26:39.230Z,37.15
2024-03-03T03:29:05.774Z,37.07
2024-03-03T03:31:33.627Z,37.07
2024-03-03T03:34:00.204Z,37.88
2024-03-03T03:36:26.685Z,35.30
2024-03-03T03:38:53.188Z,34.75
2024-03-03T03:41:19.708Z,37.25
2024-03-03T03:43:46.241Z,35.97
2024-03-03T03:46:12.775Z,36.42
2024-03-03T03:48:40.677Z,35.67
2024-03-03T03:51:07.193Z,37.25
2024-03-03T03:53:33.785Z,34.50
2024-03-03T03:56:00.554Z,35.50
2024-03-03T03:58:27.031Z,36.63
2024-03-03T04:00:53.662Z,25.42
2024-03-03T04:03:20.287Z,33.63
2024-03-03T04:05:48.132Z,32.85
2024-03-03T04:08:14.689Z,32.08
2024-03-03T04:10:41.292Z,31.50
2024-03-03T04:13:07.827Z,30.58
2024-03-03T04:15:34.341Z,32.07
2024-03-03T04:18:00.911Z,34.05
2024-03-03T04:20:27.444Z,33.17
2024-03-03T04:22:55.293Z,31.90
2024-03-03T04:25:21.893Z,31.23
2024-03-03T04:27:48.530Z,34.10
2024-03-03T04:30:15.282Z,32.77
2024-03-03T04:32:41.854Z,34.58
2024-03-03T04:35:09.246Z,32.33
2024-03-03T04:37:35.746Z,32.85
2024-03-03T04:40:04.413Z,34.50
2024-03-03T04:42:30.926Z,32.65
2024-03-03T04:44:57.461Z,33.88
2024-03-03T04:47:23.942Z,34.83
2024-03-03T04:49:50.786Z,32.87
2024-03-03T04:52:17.462Z,37.25
2024-03-03T04:54:44.063Z,36.65
2024-03-03T04:57:12.097Z,33.00
2024-03-03T04:59:38.604Z,36.17
2024-03-03T05:02:05.530Z,34.40
2024-03-03T05:04:32.120Z,35.15
2024-03-03T05:06:58.687Z,36.30
2024-03-03T05:09:25.202Z,35.97
2024-03-03T05:11:51.698Z,34.85
2024-03-03T05:14:19.521Z,34.03
2024-03-03T05:16:46.013Z,35.70
2024-03-03T05:19:12.550Z,34.05
2024-03-03T05:21:39.151Z,35.93
2024-03-03T05:24:06.183Z,34.27
2024-03-03T05:26:32.693Z,36.47
2024-03-03T05:28:59.199Z,34.67
2024-03-03T05:31:33.494Z,35.45
2024-03-03T05:33:59.976Z,36.42
2024-03-03T05:36:26.542Z,39.72
2024-03-03T05:38:53.045Z,36.40
2024-03-03T05:41:19.521Z,38.90
2024-03-03T05:43:46.004Z,38.08
2024-03-03T05:46:12.608Z,39.10
2024-03-03T05:48:40.692Z,39.17
2024-03-03T05:51:07.212Z,40.58
2024-03-03T05:53:33.734Z,37.72
2024-03-03T05:56:00.216Z,39.15
2024-03-03T05:58:26.732Z,42.80
2024-03-03T06:00:53.298Z,39.77
2024-03-03T06:03:19.835Z,41.77
2024-03-03T06:05:47.656Z,41.57
2024-03-03T06:08:14.191Z,39.85
2024-03-03T06:10:40.651Z,39.03
2024-03-03T06:13:07.137Z,41.97
2024-03-03T06:15:33.664Z,40.50
2024-03-03T06:18:00.231Z,40.87
2024-03-03T06:20:26.797Z,36.93
2024-03-03T06:22:54.615Z,38.77
2024-03-03T06:25:21.157Z,34.30
2024-03-03T06:27:47.684Z,33.30
2024-03-03T06:30:14.295Z,36.77
2024-03-03T06:32:40.883Z,35.97
2024-03-03T06:35:09.315Z,36.00
2024-03-03T06:37:35.836Z,35.83
2024-03-03T06:40:05.195Z,33.60
2024-03-03T06:42:31.675Z,31.30
2024-03-03T06:44:58.158Z,31.60
2024-03-03T06:47:24.629Z,32.35
2024-03-03T06:49:51.140Z,30.73
2024-03-03T06:52:17.702Z,32.50
2024-03-03T06:54:44.237Z,33.63
2024-03-03T06:57:12.201Z,34.33
2024-03-03T06:59:38.696Z,34.55
2024-03-03T07:02:05.406Z,32.75
2024-03-03T07:04:32.009Z,32.92
2024-03-03T07:06:58.588Z,34.97
2024-03-03T07:09:25.153Z,35.37
2024-03-03T07:11:52.106Z,37.38
2024-03-03T07:14:20.637Z,34.67
2024-03-03T07:16:47.525Z,37.25
2024-03-03T07:19:14.117Z,34.28
2024-03-03T07:21:40.925Z,36.30
2024-03-03T07:24:07.516Z,35.30
2024-03-03T07:26:34.114Z,38.05
2024-03-03T07:29:00.600Z,36.73
2024-03-03T07:31:28.529Z,36.22
2024-03-03T07:33:55.186Z,32.88
2024-03-03T07:36:21.774Z,31.50
2024-03-03T07:38:48.318Z,32.63
2024-03-03T07:41:15.094Z,34.60
2024-03-03T07:43:41.662Z,33.95
2024-03-03T07:46:08.221Z,32.77
2024-03-03T07:48:36.377Z,33.40
2024-03-03T07:51:03.559Z,32.90
2024-03-03T07:53:30.033Z,33.42
2024-03-03T07:55:56.557Z,32.30
2024-03-03T07:58:23.147Z,32.83
2024-03-03T08:00:50.022Z,32.90
2024-03-03T08:03:16.684Z,33.40
2024-03-03T08:05:44.515Z,32.60
2024-03-03T08:08:12.515Z,32.40
2024-03-03T08:10:39.082Z,32.45
2024-03-03T08:13:05.678Z,31.92
2024-03-03T08:15:32.185Z,32.97
2024-03-03T08:18:01.627Z,30.67
2024-03-03T08:20:28.822Z,32.35
2024-03-03T08:22:56.958Z,30.00
2024-03-03T08:25:23.889Z,29.52
2024-03-03T08:27:50.490Z,30.30
2024-03-03T08:30:16.983Z,28.43
2024-03-03T08:32:43.569Z,28.10
2024-03-03T08:35:10.138Z,25.60
2024-03-03T08:37:37.377Z,24.30
2024-03-03T08:40:06.793Z,26.17
2024-03-03T08:42:33.600Z,27.10
2024-03-03T08:45:00.187Z,26.52
2024-03-03T08:47:26.785Z,25.67
2024-03-03T08:49:53.310Z,26.23
2024-03-03T08:52:19.947Z,24.77
2024-03-03T08:54:46.598Z,25.50
2024-03-03T08:57:14.495Z,24.50
2024-03-03T08:59:40.973Z,22.25
2024-03-03T09:02:07.619Z,25.75
2024-03-03T09:04:34.302Z,23.33
2024-03-03T09:07:00.828Z,24.77
2024-03-03T09:09:27.362Z,24.45
2024-03-03T09:11:53.839Z,22.58
2024-03-03T09:14:21.736Z,20.55
2024-03-03T09:16:48.204Z,21.65
2024-03-03T09:19:14.770Z,21.08
2024-03-03T09:21:41.773Z,20.23
2024-03-03T09:24:09.679Z,20.98
2024-03-03T09:26:36.375Z,20.13
2024-03-03T09:29:03.101Z,21.23
2024-03-03T09:31:31.020Z,20.77
2024-03-03T09:33:57.580Z,20.67
2024-03-03T09:36:24.101Z,19.90
2024-03-03T09:38:50.617Z,19.60
2024-03-03T09:41:18.260Z,19.50
2024-03-03T09:43:49.938Z,19.00
2024-03-03T09:46:18.300Z,19.33
2024-03-03T09:48:47.412Z,18.02
2024-03-03T09:51:14.450Z,18.92
2024-03-03T09:53:43.154Z,18.83
2024-03-03T09:56:12.518Z,18.00
2024-03-03T09:58:39.401Z,18.80
2024-03-03T10:01:09.623Z,16.02
2024-03-03T10:03:37.068Z,15.38
2024-03-03T10:06:07.974Z,16.02
2024-03-03T10:08:36.284Z,14.63
2024-03-03T10:11:07.259Z,14.85
2024-03-03T10:13:33.944Z,13.50
2024-03-03T10:16:02.345Z,15.10
2024-03-03T10:18:28.958Z,16.15
2024-03-03T10:20:55.607Z,12.90
2024-03-03T10:23:23.765Z,13.30
2024-03-03T10:25:54.498Z,12.85
2024-03-03T10:28:21.115Z,10.43
2024-03-03T10:30:47.646Z,9.23
2024-03-03T10:33:14.332Z,9.43
2024-03-03T10:35:40.884Z,9.17
2024-03-03T10:38:10.274Z,9.40
2024-03-03T10:40:38.228Z,8.57
2024-03-03T10:43:05.188Z,8.85
2024-03-03T10:45:31.717Z,9.05
2024-03-03T10:47:58.956Z,7.60
2024-03-03T10:50:25.986Z,9.52
2024-03-03T10:52:53.724Z,9.13
2024-03-03T10:55:20.382Z,8.30
2024-03-03T10:57:50.843Z,8.55
2024-03-03T11:00:17.614Z,7.75
2024-03-03T11:02:46.052Z,7.25
2024-03-03T11:05:13.870Z,8.15
2024-03-03T11:07:40.533Z,7.38
2024-03-03T11:10:08.404Z,8.07
2024-03-03T11:12:37.229Z,7.60
2024-03-03T11:15:06.393Z,7.13
2024-03-03T11:17:36.505Z,6.18
2024-03-03T11:20:04.934Z,6.30
2024-03-03T11:22:33.992Z,5.85
2024-03-03T11:25:05.380Z,6.18
2024-03-03T11:27:37.216Z,6.43
2024-03-03T11:30:09.400Z,6.22
2024-03-03T11:32:36.672Z,4.72
2024-03-03T11:37:31.518Z,5.00
2024-03-03T11:40:00.303Z,3.45
2024-03-03T11:42:37.951Z,3.83
2024-03-03T11:45:07.316Z,3.72
2024-03-03T11:47:34.962Z,3.28
2024-03-03T11:50:02.284Z,3.50
2024-03-03T11:55:05.288Z,3.38
2024-03-03T11:57:31.797Z,2.97
2024-03-03T11:59:59.608Z,2.97
2024-03-03T12:02:27.755Z,2.92
2024-03-03T12:04:54.210Z,2.58
2024-03-03T12:07:20.885Z,2.33
2024-03-03T12:09:47.856Z,2.60
2024-03-03T12:12:14.574Z,2.40
2024-03-03T12:14:41.809Z,3.37
2024-03-03T12:19:37.246Z,2.22
2024-03-03T12:22:04.870Z,2.75
2024-03-03T12:24:31.440Z,1.98
2024-03-03T12:26:58.001Z,2.57
2024-03-03T12:29:24.504Z,2.47
2024-03-03T12:31:51.061Z,2.33
2024-03-03T12:34:17.615Z,2.42
2024-03-03T12:36:46.013Z,2.10
2024-03-03T12:39:13.040Z,2.88
2024-03-03T12:41:39.582Z,2.85
2024-03-03T12:44:06.350Z,2.45
2024-03-03T12:46:32.967Z,2.65
2024-03-03T12:48:59.640Z,2.85
2024-03-03T12:51:26.325Z,2.10
2024-03-03T12:53:54.739Z,2.60
2024-03-03T12:56:22.727Z,2.60
2024-03-03T12:58:49.707Z,2.47
2024-03-03T13:01:17.409Z,2.13
2024-03-03T13:03:47.547Z,1.75
2024-03-03T13:06:15.099Z,1.50
2024-03-03T13:11:10.622Z,1.60
2024-03-03T13:13:38.402Z,1.23
2024-03-03T13:16:05.936Z,0.70
2024-03-03T13:18:32.566Z,1.13
2024-03-03T13:21:09.037Z,1.17
2024-03-03T13:23:35.505Z,1.17
2024-03-03T13:26:02.201Z,1.07
2024-03-03T13:28:33.588Z,0.98
2024-03-03T13:31:02.231Z,0.60
2024-03-03T13:33:29.351Z,0.85
2024-03-03T13:35:55.986Z,0.80
2024-03-03T13:38:22.545Z,0.70
2024-03-03T13:40:49.122Z,0.80
2024-03-03T13:43:15.865Z,0.87
2024-03-03T13:45:43.875Z,0.90
2024-03-03T13:48:12.064Z,1.20
2024-03-03T13:50:38.577Z,0.80
2024-03-03T13:53:05.334Z,0.75
2024-03-03T13:55:31.935Z,0.75
2024-03-03T13:57:58.600Z,0.70
2024-03-03T14:00:25.140Z,0.80
2024-03-03T14:02:52.969Z,1.30
2024-03-03T14:05:19.469Z,0.85
2024-03-03T14:07:46.665Z,0.70
2024-03-03T14:10:15.249Z,0.60
2024-03-03T14:12:41.785Z,0.70
2024-03-03T14:15:09.314Z,0.80
2024-03-03T14:17:36.280Z,0.60
2024-03-03T14:20:04.905Z,0.85
2024-03-03T14:22:31.553Z,0.70
2024-03-03T14:24:58.078Z,0.60
2024-03-03T14:27:24.776Z,0.73
2024-03-03T14:29:51.285Z,0.60
2024-03-03T14:32:17.835Z,0.80
2024-03-03T14:34:44.344Z,0.60
2024-03-03T14:37:12.319Z,0.67
2024-03-03T14:39:38.778Z,0.80
2024-03-03T14:42:05.559Z,0.50
2024-03-03T14:44:32.033Z,0.85
2024-03-03T14:46:58.588Z,0.75
2024-03-03T14:49:25.267Z,0.87
2024-03-03T14:51:51.821Z,0.77
2024-03-03T14:54:19.663Z,0.87
2024-03-03T14:56:46.215Z,0.85
2024-03-03T14:59:12.725Z,0.70
2024-03-03T15:01:39.281Z,0.70
2024-03-03T15:04:05.936Z,0.73
2024-03-03T15:06:32.500Z,0.90
2024-03-03T15:08:59.123Z,1.25
2024-03-03T15:11:26.956Z,0.70
2024-03-03T15:13:53.540Z,1.17
2024-03-03T15:16:20.472Z,0.70
2024-03-03T15:18:47.023Z,0.80
2024-03-03T15:21:13.537Z,1.27
2024-03-03T15:23:41.491Z,0.88
2024-03-03T15:26:08.247Z,0.80
2024-03-03T15:28:36.443Z,0.90
2024-03-03T15:31:04.295Z,0.70
2024-03-03T15:33:31.918Z,0.93
2024-03-03T15:35:59.692Z,1.00
2024-03-03T15:38:26.543Z,0.63
2024-03-03T15:40:53.010Z,0.90
2024-03-03T15:43:19.524Z,1.05
2024-03-03T15:45:47.562Z,0.90
2024-03-03T15:48:14.157Z,0.60
2024-03-03T15:50:40.870Z,0.80
2024-03-03T15:53:07.500Z,1.00
2024-03-03T15:55:36.184Z,0.70
2024-03-03T15:58:04.517Z,0.70
2024-03-03T16:00:31.081Z,0.90
2024-03-03T16:02:59.371Z,1.10
2024-03-03T16:05:26.596Z,0.73
2024-03-03T16:07:53.147Z,0.98
2024-03-03T16:10:19.688Z,0.80
2024-03-03T16:12:46.503Z,0.70
2024-03-03T16:15:13.308Z,1.00
2024-03-03T16:17:40.011Z,1.30
2024-03-03T16:20:09.040Z,1.10
2024-03-03T16:22:35.564Z,1.10
2024-03-03T16:25:02.164Z,1.67
2024-03-03T16:27:28.885Z,1.20
2024-03-03T16:29:55.392Z,1.00
2024-03-03T16:32:21.891Z,1.00
2024-03-03T16:34:48.386Z,0.82
2024-03-03T16:37:16.344Z,0.80
2024-03-03T16:39:43.221Z,0.95
2024-03-03T16:42:10.222Z,1.00
2024-03-03T16:44:36.824Z,1.33
2024-03-03T16:47:03.529Z,1.00
2024-03-03T16:49:30.090Z,1.00
2024-03-03T16:51:59.010Z,0.93
2024-03-03T16:54:27.172Z,1.20
2024-03-03T16:56:53.773Z,1.00
2024-03-03T16:59:20.321Z,1.10
2024-03-03T17:01:46.859Z,1.40
2024-03-03T17:04:13.541Z,1.40
2024-03-03T17:06:40.081Z,4.53
2024-03-03T17:09:06.556Z,3.67
2024-03-03T17:11:34.444Z,1.75
2024-03-03T17:14:00.946Z,1.60
2024-03-03T17:16:27.482Z,1.90
2024-03-03T17:18:54.076Z,1.75
2024-03-03T17:21:20.663Z,1.70
2024-03-03T17:23:47.148Z,1.85
2024-03-03T17:26:13.771Z,1.90
2024-03-03T17:28:41.669Z,1.70
2024-03-03T17:31:08.331Z,2.45
2024-03-03T17:33:34.934Z,2.30
2024-03-03T17:36:01.629Z,2.78
2024-03-03T17:38:28.264Z,3.15
2024-03-03T17:40:54.751Z,5.07
2024-03-03T17:43:21.345Z,5.97
2024-03-03T17:45:49.259Z,8.73
2024-03-03T17:48:15.814Z,5.82
2024-03-03T17:50:42.487Z,5.20
2024-03-03T17:53:09.015Z,6.57
2024-03-03T17:55:35.584Z,4.80
2024-03-03T17:58:02.195Z,5.00
2024-03-03T18:00:28.770Z,5.10
2024-03-03T18:02:56.603Z,4.28
2024-03-03T18:05:23.130Z,16.02
2024-03-03T18:07:49.705Z,26.73
2024-03-03T18:10:16.358Z,22.08
2024-03-03T18:12:42.890Z,21.17
2024-03-03T18:15:10.632Z,29.27
2024-03-03T18:17:37.567Z,22.95
2024-03-03T18:20:07.124Z,21.27
2024-03-03T18:22:33.841Z,15.60
2024-03-03T18:25:00.487Z,15.23
2024-03-03T18:27:27.148Z,9.67
2024-03-03T18:29:53.816Z,8.37
2024-03-03T18:32:20.377Z,8.03
2024-03-03T18:34:46.876Z,7.40
2024-03-03T18:37:14.815Z,5.68
2024-03-03T18:39:41.334Z,6.18
2024-03-03T18:42:09.150Z,5.97
2024-03-03T18:44:35.690Z,5.18
2024-03-03T18:47:02.256Z,4.82
2024-03-03T18:49:28.852Z,4.72
2024-03-03T18:51:55.625Z,5.20
2024-03-03T18:54:23.872Z,5.55
2024-03-03T18:56:50.404Z,8.65
2024-03-03T18:59:17.050Z,8.98
2024-03-03T19:01:43.718Z,10.32
2024-03-03T19:04:10.273Z,8.97
2024-03-03T19:06:36.807Z,9.38
2024-03-03T19:09:03.606Z,8.70
2024-03-03T19:11:31.547Z,9.88
2024-03-03T19:13:58.072Z,9.82
2024-03-03T19:16:24.613Z,9.30
2024-03-03T19:18:51.200Z,9.45
2024-03-03T19:21:17.764Z,9.37
2024-03-03T19:23:44.260Z,9.05
2024-03-03T19:26:10.829Z,9.48
2024-03-03T19:28:38.941Z,8.20
2024-03-03T19:31:05.756Z,8.27
2024-03-03T19:33:32.342Z,8.88
2024-03-03T19:35:58.857Z,8.10
2024-03-03T19:38:25.333Z,5.93
2024-03-03T19:40:51.925Z,7.78
2024-03-03T19:43:18.471Z,8.40
2024-03-03T19:45:46.373Z,7.00
2024-03-03T19:48:12.911Z,7.28
2024-03-03T19:50:39.449Z,6.35
2024-03-03T19:53:05.945Z,6.53
2024-03-03T19:55:32.877Z,6.30
2024-03-03T19:57:59.493Z,5.87
2024-03-03T20:00:26.071Z,7.00
2024-03-03T20:02:53.992Z,6.50
2024-03-03T20:05:20.487Z,6.78
2024-03-03T20:07:47.308Z,6.45
2024-03-03T20:10:14.120Z,6.28
2024-03-03T20:12:40.802Z,5.55
2024-03-03T20:15:08.248Z,5.97
2024-03-03T20:20:02.493Z,6.30
2024-03-03T20:22:29.062Z,6.22
2024-03-03T20:24:55.624Z,6.63
2024-03-03T20:27:22.126Z,6.23
2024-03-03T20:29:48.632Z,6.88
2024-03-03T20:32:15.285Z,6.50
2024-03-03T20:34:41.878Z,6.83
2024-03-03T20:37:09.779Z,6.93
2024-03-03T20:39:36.288Z,7.78
2024-03-03T20:42:02.900Z,6.80
2024-03-03T20:44:29.388Z,7.23
2024-03-03T20:46:55.865Z,7.40
2024-03-03T20:49:22.472Z,7.40
2024-03-03T20:51:49.039Z,6.17
2024-03-03T20:54:16.920Z,6.30
2024-03-03T20:56:43.461Z,6.32
2024-03-03T20:59:09.950Z,5.30
2024-03-03T21:01:36.943Z,5.45
2024-03-03T21:04:03.848Z,5.93
2024-03-03T21:06:30.463Z,6.28
2024-03-03T21:08:57.015Z,5.77
2024-03-03T21:11:24.957Z,5.13
2024-03-03T21:13:51.451Z,5.20
2024-03-03T21:16:18.002Z,5.25
2024-03-03T21:18:44.586Z,6.53
2024-03-03T21:21:11.308Z,5.57
2024-03-03T21:23:37.814Z,5.28
2024-03-03T21:26:04.820Z,5.43
2024-03-03T21:28:32.918Z,5.88
2024-03-03T21:30:59.477Z,5.43
2024-03-03T21:33:26.009Z,6.00
2024-03-03T21:35:52.512Z,6.15
2024-03-03T21:38:19.018Z,7.32
2024-03-03T21:40:45.532Z,6.40
2024-03-03T21:43:12.563Z,8.32
2024-03-03T21:45:41.053Z,7.78
2024-03-03T21:48:07.971Z,7.95
2024-03-03T21:50:34.518Z,6.95
2024-03-03T21:53:01.038Z,8.20
2024-03-03T21:55:27.586Z,7.70
2024-03-03T21:57:54.136Z,8.35
2024-03-03T22:00:21.307Z,7.97
2024-03-03T22:02:49.363Z,8.15
2024-03-03T22:05:15.874Z,7.85
2024-03-03T22:07:42.542Z,9.15
2024-03-03T22:10:10.237Z,9.18
2024-03-03T22:12:36.744Z,8.98
2024-03-03T22:15:03.709Z,8.98
2024-03-03T22:17:30.230Z,9.25
2024-03-03T22:19:58.097Z,9.73
2024-03-03T22:22:24.690Z,9.13
2024-03-03T22:24:51.236Z,8.80
2024-03-03T22:27:17.809Z,10.13
2024-03-03T22:29:44.304Z,15.77
2024-03-03T22:32:10.825Z,15.32
2024-03-03T22:34:37.381Z,13.05
2024-03-03T22:37:05.397Z,12.20
2024-03-03T22:39:31.871Z,13.80
2024-03-03T22:41:58.359Z,13.82
2024-03-03T22:44:24.849Z,14.63
2024-03-03T22:46:53.895Z,13.10
2024-03-03T22:49:21.689Z,13.02
2024-03-03T22:51:48.561Z,12.52
2024-03-03T22:54:16.427Z,12.32
2024-03-03T22:56:42.976Z,11.40
2024-03-03T22:59:09.578Z,12.55
2024-03-03T23:01:36.253Z,11.13
2024-03-03T23:04:02.911Z,11.35
2024-03-03T23:06:29.429Z,10.23
2024-03-03T23:08:55.924Z,13.10
2024-03-03T23:11:23.793Z,11.65
2024-03-03T23:13:50.331Z,12.32
2024-03-03T23:16:16.943Z,11.75
2024-03-03T23:18:43.538Z,10.33
2024-03-03T23:21:11.298Z,10.13
2024-03-03T23:23:37.782Z,10.27
2024-03-03T23:26:05.319Z,9.65
2024-03-03T23:30:59.580Z,10.02
2024-03-03T23:33:26.081Z,9.05
2024-03-03T23:35:52.594Z,9.32
2024-03-03T23:38:19.093Z,10.10
2024-03-03T23:40:45.600Z,10.27
2024-03-03T23:43:12.660Z,11.77
2024-03-03T23:45:40.614Z,11.40
2024-03-03T23:48:07.633Z,12.15
2024-03-03T23:50:34.172Z,10.95
2024-03-03T23:53:00.713Z,9.63
2024-03-03T23:55:27.302Z,11.55
2024-03-03T23:57:53.859Z,12.03
